createdAt,value
2019-05-20T00:05:04.831Z,99.90
2019-05-20T00:10:12.676Z,99.90
2019-05-20T00:15:19.718Z,99.90
2019-05-20T00:20:28.143Z,99.90
2019-05-20T00:25:35.334Z,99.90
2019-05-20T00:30:42.359Z,99.90
2019-05-20T00:35:49.495Z,99.90
2019-05-20T00:40:56.723Z,99.90
2019-05-20T00:46:05.689Z,99.90
2019-05-20T00:51:12.777Z,99.90
2019-05-20T00:56:19.884Z,99.90
2019-05-20T01:01:27.012Z,99.90
2019-05-20T01:06:34.106Z,99.90
2019-05-20T01:11:42.254Z,99.90
2019-05-20T01:16:49.457Z,99.90
2019-05-20T01:21:56.758Z,99.90
2019-05-20T01:27:04.077Z,99.90
2019-05-20T01:32:12.568Z,99.90
2019-05-20T01:37:19.772Z,99.90
2019-05-20T01:42:27.801Z,99.90
2019-05-20T01:47:35.056Z,99.90
2019-05-20T01:52:42.319Z,99.90
2019-05-20T01:57:50.630Z,99.90
2019-05-20T02:02:57.813Z,99.90
2019-05-20T02:08:06.127Z,99.90
2019-05-20T02:13:13.492Z,99.90
2019-05-20T02:18:20.717Z,99.90
2019-05-20T02:23:27.833Z,99.90
2019-05-20T02:28:34.931Z,99.90
2019-05-20T02:33:51.628Z,99.90
2019-05-20T02:38:50.829Z,99.90
2019-05-20T02:43:58.030Z,99.90
2019-05-20T02:49:06.068Z,99.90
2019-05-20T02:54:13.226Z,99.90
2019-05-20T02:59:20.293Z,99.90
2019-05-20T03:04:27.412Z,99.90
2019-05-20T03:09:34.486Z,99.90
2019-05-20T03:14:41.614Z,99.90
2019-05-20T03:19:48.955Z,99.90
2019-05-20T03:24:56.397Z,99.90
2019-05-20T03:30:03.709Z,99.90
2019-05-20T03:35:11.337Z,99.90
2019-05-20T03:40:18.570Z,99.90
2019-05-20T03:45:25.657Z,99.90
2019-05-20T03:50:32.843Z,99.90
2019-05-20T03:55:39.963Z,99.90
2019-05-20T04:00:48.331Z,99.90
2019-05-20T04:05:59.192Z,99.90
2019-05-20T04:11:06.301Z,99.90
2019-05-20T04:16:13.328Z,99.90
2019-05-20T04:21:20.466Z,99.90
2019-05-20T04:26:27.440Z,99.90
2019-05-20T04:31:34.607Z,99.90
2019-05-20T04:36:41.730Z,99.90
2019-05-20T04:41:49.022Z,99.90
2019-05-20T04:46:58.001Z,99.90
2019-05-20T04:52:06.274Z,99.90
2019-05-20T04:57:13.303Z,99.90
2019-05-20T05:02:20.301Z,99.90
2019-05-20T05:07:27.762Z,99.90
2019-05-20T05:12:34.918Z,99.90
2019-05-20T05:17:43.230Z,99.90
2019-05-20T05:22:50.260Z,99.90
2019-05-20T05:27:57.456Z,99.90
2019-05-20T05:33:04.593Z,99.90
2019-05-20T05:38:11.777Z,99.90
2019-05-20T05:43:18.913Z,99.90
2019-05-20T05:48:26.109Z,99.90
2019-05-20T05:53:33.135Z,99.90
2019-05-20T05:58:40.283Z,99.90
2019-05-20T06:03:47.440Z,99.90
2019-05-20T06:08:54.714Z,99.90
2019-05-20T06:14:01.907Z,99.90
2019-05-20T06:19:09.008Z,99.90
2019-05-20T06:24:16.442Z,99.90
2019-05-20T06:29:23.939Z,99.90
2019-05-20T06:34:33.269Z,99.90
2019-05-20T06:39:40.271Z,99.90
2019-05-20T06:44:52.855Z,99.90
2019-05-20T06:49:56.428Z,99.90
2019-05-20T06:55:03.608Z,99.90
2019-05-20T07:00:12.440Z,99.90
2019-05-20T07:05:19.509Z,99.90
2019-05-20T07:10:26.722Z,99.90
2019-05-20T07:15:33.837Z,99.90
2019-05-20T07:20:41.053Z,99.90
2019-05-20T07:25:49.417Z,99.90
2019-05-20T07:30:57.654Z,99.90
2019-05-20T07:36:09.663Z,99.90
2019-05-20T07:41:14.909Z,99.90
2019-05-20T07:46:23.379Z,99.90
2019-05-20T07:51:31.296Z,99.90
2019-05-20T07:56:41.756Z,99.90
2019-05-20T08:01:50.517Z,99.90
2019-05-20T08:06:58.080Z,99.90
2019-05-20T08:12:06.089Z,99.90
2019-05-20T08:17:14.119Z,99.90
2019-05-20T08:22:22.461Z,99.90
2019-05-20T08:27:32.487Z,99.90
2019-05-20T08:32:40.414Z,99.90
2019-05-20T08:37:48.086Z,99.90
2019-05-20T08:42:55.294Z,99.90
2019-05-20T08:48:02.421Z,99.90
2019-05-20T08:53:10.168Z,99.90
2019-05-20T08:58:17.239Z,99.90
2019-05-20T09:03:24.778Z,99.90
2019-05-20T09:08:32.059Z,99.90
2019-05-20T09:13:39.067Z,99.90
2019-05-20T09:18:46.209Z,99.90
2019-05-20T09:23:53.461Z,99.90
2019-05-20T09:29:00.836Z,99.90
2019-05-20T09:34:08.166Z,99.90
2019-05-20T09:39:16.083Z,99.90
2019-05-20T09:44:24.757Z,99.90
2019-05-20T09:49:32.106Z,99.90
2019-05-20T09:54:39.828Z,99.90
2019-05-20T09:59:48.032Z,99.90
2019-05-20T10:04:56.347Z,99.90
2019-05-20T10:10:05.204Z,99.90
2019-05-20T10:15:12.504Z,99.90
2019-05-20T10:20:21.435Z,99.90
2019-05-20T10:25:29.836Z,99.90
2019-05-20T10:30:38.187Z,99.90
2019-05-20T10:35:46.972Z,99.90
2019-05-20T10:40:56.283Z,99.90
2019-05-20T10:46:04.586Z,99.80
2019-05-20T10:51:13.239Z,99.60
2019-05-20T10:56:22.029Z,99.90
2019-05-20T11:01:30.361Z,99.90
2019-05-20T11:06:38.687Z,99.90
2019-05-20T11:11:47.015Z,99.90
2019-05-20T11:16:55.341Z,99.90
2019-05-20T11:22:02.498Z,98.80
2019-05-20T11:27:09.562Z,98.90
2019-05-20T11:32:16.782Z,99.90
2019-05-20T11:37:24.600Z,99.90
2019-05-20T11:42:32.955Z,99.90
2019-05-20T11:47:41.182Z,99.90
2019-05-20T11:52:48.526Z,99.90
2019-05-20T11:57:55.798Z,99.90
2019-05-20T12:03:03.275Z,97.90
2019-05-20T12:08:10.402Z,98.80
2019-05-20T12:13:17.860Z,98.10
2019-05-20T12:18:25.130Z,99.20
2019-05-20T12:23:32.482Z,99.00
2019-05-20T12:28:41.082Z,93.90
2019-05-20T12:33:49.368Z,91.90
2019-05-20T12:38:58.021Z,92.40
2019-05-20T12:44:11.805Z,91.20
2019-05-20T12:49:15.907Z,79.90
2019-05-20T12:54:23.998Z,91.50
2019-05-20T12:59:32.297Z,95.50
2019-05-20T13:04:39.860Z,96.20
2019-05-20T13:09:48.088Z,98.00
2019-05-20T13:14:55.528Z,99.90
2019-05-20T13:20:02.924Z,99.90
2019-05-20T13:25:12.267Z,99.90
2019-05-20T13:30:21.487Z,99.90
2019-05-20T13:35:29.998Z,99.90
2019-05-20T13:40:46.217Z,99.90
2019-05-20T13:45:48.082Z,99.90
2019-05-20T13:50:55.941Z,99.90
2019-05-20T13:56:04.625Z,99.90
2019-05-20T14:01:12.082Z,99.90
2019-05-20T14:06:20.474Z,99.90
2019-05-20T14:11:34.723Z,99.90
2019-05-20T14:16:36.217Z,99.90
2019-05-20T14:21:46.844Z,99.90
2019-05-20T14:26:55.473Z,99.90
2019-05-20T14:32:02.984Z,99.90
2019-05-20T14:37:10.457Z,99.90
2019-05-20T14:42:17.519Z,99.90
2019-05-20T14:47:24.690Z,99.90
2019-05-20T14:52:31.781Z,99.90
2019-05-20T14:57:39.913Z,99.90
2019-05-20T15:02:47.016Z,99.90
2019-05-20T15:07:55.335Z,99.90
2019-05-20T15:13:03.887Z,99.90
2019-05-20T15:18:10.924Z,99.90
2019-05-20T15:23:19.254Z,99.90
2019-05-20T15:28:27.560Z,99.90
2019-05-20T15:33:34.587Z,99.90
2019-05-20T15:38:41.632Z,99.90
2019-05-20T15:43:48.835Z,99.90
2019-05-20T15:48:57.038Z,99.90
2019-05-20T15:54:05.765Z,99.90
2019-05-20T15:59:13.183Z,99.90
2019-05-20T16:04:20.360Z,99.90
2019-05-20T16:09:27.512Z,99.90
2019-05-20T16:14:34.976Z,99.90
2019-05-20T16:19:42.339Z,99.90
2019-05-20T16:24:49.446Z,98.50
2019-05-20T16:30:06.302Z,99.50
2019-05-20T16:35:06.190Z,99.90
2019-05-20T16:40:14.689Z,99.90
2019-05-20T16:45:21.936Z,99.90
2019-05-20T16:50:29.090Z,99.90
2019-05-20T16:55:36.362Z,99.90
2019-05-20T17:00:43.666Z,99.90
2019-05-20T17:05:50.910Z,99.90
2019-05-20T17:10:58.220Z,99.90
2019-05-20T17:16:06.483Z,99.90
2019-05-20T17:21:13.641Z,99.90
2019-05-20T17:26:20.939Z,99.90
2019-05-20T17:31:30.828Z,99.90
2019-05-20T17:36:36.969Z,99.90
2019-05-20T17:41:44.234Z,99.90
2019-05-20T17:46:51.416Z,99.90
2019-05-20T17:51:58.529Z,99.90
2019-05-20T17:57:06.263Z,99.90
2019-05-20T18:02:13.728Z,99.90
2019-05-20T18:07:20.957Z,99.90
2019-05-20T18:12:28.295Z,99.90
2019-05-20T18:17:35.657Z,99.90
2019-05-20T18:22:42.782Z,99.90
2019-05-20T18:27:50.814Z,99.90
2019-05-20T18:32:58.164Z,99.90
2019-05-20T18:38:06.088Z,99.90
2019-05-20T18:43:13.261Z,99.90
2019-05-20T18:48:20.383Z,99.90
2019-05-20T18:53:27.542Z,99.90
2019-05-20T18:58:35.221Z,99.90
2019-05-20T19:04:25.707Z,99.90
2019-05-20T19:09:42.638Z,99.90
2019-05-20T19:14:49.824Z,99.90
2019-05-20T19:19:57.080Z,99.90
2019-05-20T19:25:06.115Z,99.90
2019-05-20T19:30:13.832Z,99.90
2019-05-20T19:35:21.876Z,99.90
2019-05-20T19:40:29.283Z,99.90
2019-05-20T19:45:51.124Z,99.90
2019-05-20T19:50:58.773Z,99.90
2019-05-20T19:56:14.826Z,99.90
2019-05-20T20:01:22.509Z,99.90
2019-05-20T20:06:29.767Z,99.90
2019-05-20T20:11:37.487Z,99.90
2019-05-20T20:16:44.668Z,99.90
2019-05-20T20:21:51.975Z,99.90
2019-05-20T20:26:59.796Z,99.90
2019-05-20T20:32:06.978Z,99.90
2019-05-20T20:37:14.326Z,99.90
2019-05-20T20:42:21.431Z,99.90
2019-05-20T20:47:40.813Z,99.90
2019-05-20T20:52:37.464Z,99.90
2019-05-20T20:57:44.577Z,99.90
2019-05-20T21:02:53.674Z,99.90
2019-05-20T21:08:13.648Z,99.90
2019-05-20T21:13:20.779Z,99.90
2019-05-20T21:18:28.011Z,99.90
2019-05-20T21:23:37.921Z,99.90
2019-05-20T21:28:43.839Z,99.90
2019-05-20T21:33:50.910Z,99.90
2019-05-20T21:38:58.128Z,99.90
2019-05-20T21:44:06.027Z,99.90
2019-05-20T21:49:13.525Z,99.90
2019-05-20T21:54:21.060Z,99.90
2019-05-20T21:59:28.272Z,99.90
2019-05-20T22:04:35.444Z,99.90
2019-05-20T22:09:42.568Z,99.90
2019-05-20T22:14:50.757Z,99.90
2019-05-20T22:19:57.829Z,99.90
2019-05-20T22:25:06.264Z,99.90
2019-05-20T22:30:14.232Z,99.90
2019-05-20T22:35:21.339Z,99.90
2019-05-20T22:40:28.535Z,99.90
2019-05-20T22:45:35.715Z,99.90
2019-05-20T22:50:43.076Z,99.90
2019-05-20T22:55:50.253Z,99.90
2019-05-20T23:00:57.477Z,99.90
2019-05-20T23:06:06.249Z,99.90
2019-05-20T23:11:13.406Z,99.90
2019-05-20T23:16:20.572Z,99.90
2019-05-20T23:21:27.876Z,99.90
2019-05-20T23:26:35.201Z,99.90
2019-05-20T23:31:42.479Z,99.90
2019-05-20T23:36:49.585Z,99.90
2019-05-20T23:41:56.704Z,99.90
2019-05-20T23:47:03.893Z,99.90
2019-05-20T23:52:11.321Z,99.90
2019-05-20T23:57:18.510Z,99.90
